This is the latest recevied weather packets stored in our database for station/object KC0QBU-13. If no packets are shown the sender has not sent any weather packets the latest 10 day(s).
| Time | Temp. | Humidity | Pressure | Rain* | Wind** | Luminosity | Snow |
|---|---|---|---|---|---|---|---|
| 1777510203 | 13.89° C | 50% | 1018.6 hPa | 0 mm | - | - | - |
| 1777509603 | 14.44° C | 50% | 1018.6 hPa | 0 mm | - | - | - |
| 1777509303 | 14.44° C | 51% | 1018.6 hPa | 0 mm | - | - | - |
| 1777508404 | 14.44° C | 49% | 1018.5 hPa | 0 mm | - | - | - |
| 1777506904 | 15° C | 47% | 1018.5 hPa | 0 mm | - | - | - |
| 1777503603 | 15.56° C | 48% | 1018.4 hPa | 0 mm | - | - | - |
| 1777503003 | 15.56° C | 48% | 1018.5 hPa | 0 mm | - | - | - |
| 1777500903 | 15.56° C | 47% | 1018.5 hPa | 0 mm | - | - | - |
| 1777497903 | 15.56° C | 47% | 1018.7 hPa | 0 mm | - | - | - |
| 1777497603 | 15.56° C | 46% | 1018.8 hPa | 0 mm | - | - | - |
| 1777497304 | 15.56° C | 49% | 1018.9 hPa | 0 mm | - | - | - |
| 1777494604 | 16.11° C | 46% | 1019.5 hPa | 0 mm | - | - | - |
| 1777492803 | 15.56° C | 50% | 1020.1 hPa | 0 mm | - | - | - |
| 1777491303 | 15.56° C | 54% | 1020 hPa | 0 mm | - | - | - |
| 1777485604 | 15° C | 52% | 1021 hPa | 0 mm | - | - | - |
| 1777485304 | 15° C | 52% | 1021.1 hPa | 0 mm | - | - | - |
| 1777484104 | 15° C | 54% | 1021.4 hPa | 0 mm | - | - | - |
| 1777482303 | 13.89° C | 58% | 1021.6 hPa | 0 mm | - | - | - |
| 1777479003 | 13.89° C | 62% | 1021.4 hPa | 0 mm | - | - | - |
| 1777474204 | 11.67° C | 68% | 1021.4 hPa | 0 mm | - | - | - |
| 1777473303 | 11.11° C | 69% | 1021.5 hPa | 0 mm | - | - | - |
| 1777471504 | 10° C | 73% | 1021.5 hPa | 0 mm | - | - | - |
| 1777468804 | 8.89° C | 78% | 1021.3 hPa | 0 mm | - | - | - |
| 1777467603 | 8.33° C | 80% | 1021.4 hPa | 0 mm | - | - | - |
| 1777466103 | 7.78° C | 81% | 1021.2 hPa | 0 mm | - | - | - |
* Rain latest hour (hover to see other rain measurements)
** Current wind speed in m/s (hover to see current wind gust speed)